createdAt,value
2023-01-22T00:01:09.357Z,-1.39
2023-01-22T00:03:37.243Z,-1.39
2023-01-22T00:06:04.780Z,-1.40
2023-01-22T00:08:32.624Z,-1.42
2023-01-22T00:11:00.145Z,-1.46
2023-01-22T00:13:28.009Z,-1.50
2023-01-22T00:15:57.613Z,-1.50
2023-01-22T00:18:25.063Z,-1.52
2023-01-22T00:20:53.593Z,-1.54
2023-01-22T00:23:21.524Z,-1.54
2023-01-22T00:25:49.037Z,-1.52
2023-01-22T00:28:17.760Z,-1.51
2023-01-22T00:30:45.063Z,-1.51
2023-01-22T00:33:12.630Z,-1.51
2023-01-22T00:35:40.137Z,-1.50
2023-01-22T00:38:07.607Z,-1.49
2023-01-22T00:40:34.976Z,-1.49
2023-01-22T00:43:02.712Z,-1.49
2023-01-22T00:45:30.995Z,-1.49
2023-01-22T00:48:00.888Z,-1.47
2023-01-22T00:50:28.477Z,-1.44
2023-01-22T00:52:56.112Z,-1.43
2023-01-22T00:55:23.709Z,-1.42
2023-01-22T00:57:51.165Z,-1.40
2023-01-22T01:00:20.483Z,-1.43
2023-01-22T01:03:07.370Z,-1.49
2023-01-22T01:05:35.270Z,-1.56
2023-01-22T01:08:02.752Z,-1.59
2023-01-22T01:10:30.282Z,-1.61
2023-01-22T01:12:59.078Z,-1.62
2023-01-22T01:15:26.429Z,-1.62
2023-01-22T01:17:53.785Z,-1.62
2023-01-22T01:20:21.210Z,-1.65
2023-01-22T01:22:48.638Z,-1.68
2023-01-22T01:25:16.327Z,-1.69
2023-01-22T01:27:43.665Z,-1.66
2023-01-22T01:30:11.326Z,-1.63
2023-01-22T01:32:38.885Z,-1.60
2023-01-22T01:35:06.986Z,-1.56
2023-01-22T01:37:34.480Z,-1.54
2023-01-22T01:40:01.966Z,-1.53
2023-01-22T01:42:35.293Z,-1.52
2023-01-22T01:45:26.216Z,-1.50
2023-01-22T01:48:07.375Z,-1.49
2023-01-22T01:50:34.883Z,-1.50
2023-01-22T01:53:02.157Z,-1.53
2023-01-22T01:55:30.640Z,-1.56
2023-01-22T01:58:01.303Z,-1.57
2023-01-22T02:00:29.209Z,-1.55
2023-01-22T02:02:59.317Z,-1.56
2023-01-22T02:05:32.603Z,-1.55
2023-01-22T02:08:00.806Z,-1.54
2023-01-22T02:10:28.394Z,-1.54
2023-01-22T02:12:57.152Z,-1.55
2023-01-22T02:15:24.526Z,-1.55
2023-01-22T02:17:52.150Z,-1.53
2023-01-22T02:20:20.164Z,-1.54
2023-01-22T02:22:50.009Z,-1.57
2023-01-22T02:25:18.919Z,-1.56
2023-01-22T02:27:46.505Z,-1.54
2023-01-22T02:30:14.586Z,-1.54
2023-01-22T02:32:41.987Z,-1.53
2023-01-22T02:35:09.685Z,-1.52
2023-01-22T02:37:37.712Z,-1.51
2023-01-22T02:40:06.870Z,-1.50
2023-01-22T02:42:34.416Z,-1.49
2023-01-22T02:45:02.116Z,-1.47
2023-01-22T02:47:29.892Z,-1.46
2023-01-22T02:49:57.319Z,-1.46
2023-01-22T02:52:24.905Z,-1.43
2023-01-22T02:54:52.620Z,-1.41
2023-01-22T02:57:20.306Z,-1.38
2023-01-22T02:59:47.877Z,-1.36
2023-01-22T03:02:15.628Z,-1.35
2023-01-22T03:04:43.381Z,-1.34
2023-01-22T03:07:10.882Z,-1.35
2023-01-22T03:09:38.586Z,-1.35
2023-01-22T03:12:06.639Z,-1.32
2023-01-22T03:14:54.347Z,-1.29
2023-01-22T03:17:40.616Z,-1.26
2023-01-22T03:20:27.778Z,-1.25
2023-01-22T03:22:55.223Z,-1.25
2023-01-22T03:25:22.816Z,-1.28
2023-01-22T03:28:08.987Z,-1.32
2023-01-22T03:30:37.350Z,-1.35
2023-01-22T03:33:04.972Z,-1.35
2023-01-22T03:35:32.812Z,-1.34
2023-01-22T03:38:05.683Z,-1.33
2023-01-22T03:40:32.967Z,-1.31
2023-01-22T03:43:00.991Z,-1.30
2023-01-22T03:45:28.928Z,-1.29
2023-01-22T03:47:57.045Z,-1.30
2023-01-22T03:50:29.744Z,-1.30
2023-01-22T03:52:58.170Z,-1.32
2023-01-22T03:55:28.322Z,-1.33
2023-01-22T03:57:55.754Z,-1.33
2023-01-22T04:00:23.516Z,-1.30
2023-01-22T04:02:52.827Z,-1.29
2023-01-22T04:05:21.428Z,-1.29
2023-01-22T04:07:50.730Z,-1.30
2023-01-22T04:10:21.499Z,-1.31
2023-01-22T04:12:49.600Z,-1.31
2023-01-22T04:15:20.334Z,-1.29
2023-01-22T04:17:49.330Z,-1.25
2023-01-22T04:20:46.707Z,-1.22
2023-01-22T04:23:30.116Z,-1.20
2023-01-22T04:25:58.023Z,-1.19
2023-01-22T04:28:25.466Z,-1.17
2023-01-22T04:30:55.212Z,-1.16
2023-01-22T04:33:33.531Z,-1.17
2023-01-22T04:36:06.273Z,-1.14
2023-01-22T04:38:34.074Z,-1.12
2023-01-22T04:41:01.492Z,-1.11
2023-01-22T04:43:29.038Z,-1.10
2023-01-22T04:45:56.395Z,-1.07
2023-01-22T04:48:29.053Z,-1.05
2023-01-22T04:50:56.455Z,-1.03
2023-01-22T04:53:26.763Z,-1.02
2023-01-22T04:55:54.279Z,-1.03
2023-01-22T04:58:22.611Z,-1.01
2023-01-22T05:00:51.559Z,-1.00
2023-01-22T05:03:19.218Z,-1.00
2023-01-22T05:05:46.878Z,-0.98
2023-01-22T05:08:14.630Z,-0.97
2023-01-22T05:10:42.371Z,-0.95
2023-01-22T05:13:13.421Z,-0.95
2023-01-22T05:15:42.838Z,-0.94
2023-01-22T05:18:12.960Z,-0.94
2023-01-22T05:20:47.618Z,-0.92
2023-01-22T05:23:15.839Z,-0.91
2023-01-22T05:25:50.563Z,-0.90
2023-01-22T05:28:23.907Z,-0.91
2023-01-22T05:31:20.573Z,-0.91
2023-01-22T05:33:53.850Z,-0.89
2023-01-22T05:36:22.916Z,-0.86
2023-01-22T05:38:51.279Z,-0.85
2023-01-22T05:41:18.947Z,-0.86
2023-01-22T05:43:46.497Z,-0.85
2023-01-22T05:46:18.677Z,-0.83
2023-01-22T05:49:24.577Z,-0.82
2023-01-22T05:51:55.404Z,-0.83
2023-01-22T05:54:23.002Z,-0.85
2023-01-22T05:56:50.978Z,-0.87
2023-01-22T05:59:18.821Z,-0.86
2023-01-22T06:01:55.454Z,-0.85
2023-01-22T06:04:22.963Z,-0.85
2023-01-22T06:06:50.490Z,-0.84
2023-01-22T06:09:20.143Z,-0.84
2023-01-22T06:11:47.782Z,-0.85
2023-01-22T06:14:15.784Z,-0.84
2023-01-22T06:16:43.398Z,-0.83
2023-01-22T06:19:29.932Z,-0.80
2023-01-22T06:21:57.498Z,-0.79
2023-01-22T06:24:30.251Z,-0.76
2023-01-22T06:26:59.065Z,-0.74
2023-01-22T06:29:35.077Z,-0.74
2023-01-22T06:32:02.667Z,-0.74
2023-01-22T06:34:30.342Z,-0.73
2023-01-22T06:36:59.746Z,-0.73
2023-01-22T06:39:28.597Z,-0.73
2023-01-22T06:42:00.835Z,-0.72
2023-01-22T06:44:28.408Z,-0.73
2023-01-22T06:46:55.878Z,-0.71
2023-01-22T06:49:27.671Z,-0.70
2023-01-22T06:51:55.319Z,-0.68
2023-01-22T06:54:23.615Z,-0.67
2023-01-22T06:56:51.236Z,-0.69
2023-01-22T06:59:18.976Z,-0.70
2023-01-22T07:01:46.546Z,-0.69
2023-01-22T07:04:14.039Z,-0.67
2023-01-22T07:06:41.600Z,-0.64
2023-01-22T07:09:09.052Z,-0.60
2023-01-22T07:11:36.429Z,-0.60
2023-01-22T07:14:04.032Z,-0.60
2023-01-22T07:16:32.465Z,-0.59
2023-01-22T07:19:00.550Z,-0.57
2023-01-22T07:21:28.194Z,-0.56
2023-01-22T07:23:55.999Z,-0.55
2023-01-22T07:26:23.526Z,-0.54
2023-01-22T07:28:51.135Z,-0.53
2023-01-22T07:31:18.704Z,-0.52
2023-01-22T07:33:46.441Z,-0.52
2023-01-22T07:36:13.926Z,-0.53
2023-01-22T07:38:41.710Z,-0.53
2023-01-22T07:41:20.532Z,-0.52
2023-01-22T07:43:53.712Z,-0.51
2023-01-22T07:46:21.099Z,-0.48
2023-01-22T07:48:48.555Z,-0.46
2023-01-22T07:51:16.198Z,-0.46
2023-01-22T07:53:43.717Z,-0.47
2023-01-22T07:56:11.328Z,-0.48
2023-01-22T07:58:39.738Z,-0.48
2023-01-22T08:01:07.711Z,-0.49
2023-01-22T08:03:35.183Z,-0.48
2023-01-22T08:06:03.208Z,-0.46
2023-01-22T08:08:30.842Z,-0.44
2023-01-22T08:10:58.857Z,-0.43
2023-01-22T08:13:26.646Z,-0.41
2023-01-22T08:15:57.089Z,-0.40
2023-01-22T08:18:24.516Z,-0.43
2023-01-22T08:20:54.982Z,-0.44
2023-01-22T08:23:22.660Z,-0.42
2023-01-22T08:25:50.191Z,-0.38
2023-01-22T08:28:17.616Z,-0.38
2023-01-22T08:30:46.646Z,-0.40
2023-01-22T08:33:16.125Z,-0.41
2023-01-22T08:35:43.583Z,-0.38
2023-01-22T08:38:11.405Z,-0.33
2023-01-22T08:40:38.853Z,-0.29
2023-01-22T08:43:06.532Z,-0.28
2023-01-22T08:45:34.025Z,-0.28
2023-01-22T08:48:01.551Z,-0.27
2023-01-22T08:50:29.946Z,-0.25
2023-01-22T08:52:58.204Z,-0.22
2023-01-22T08:55:27.873Z,-0.18
2023-01-22T08:57:56.335Z,-0.14
2023-01-22T09:00:24.706Z,-0.14
2023-01-22T09:02:52.433Z,-0.15
2023-01-22T09:05:19.827Z,-0.14
2023-01-22T09:07:47.582Z,-0.15
2023-01-22T09:10:15.264Z,-0.17
2023-01-22T09:12:42.757Z,-0.19
2023-01-22T09:15:10.872Z,-0.18
2023-01-22T09:17:38.570Z,-0.17
2023-01-22T09:20:06.351Z,-0.20
2023-01-22T09:22:34.028Z,-0.23
2023-01-22T09:25:01.578Z,-0.25
2023-01-22T09:27:29.183Z,-0.24
2023-01-22T09:29:56.637Z,-0.23
2023-01-22T09:32:24.365Z,-0.20
2023-01-22T09:34:52.011Z,-0.16
2023-01-22T09:37:19.764Z,-0.09
2023-01-22T09:39:50.769Z,-0.02
2023-01-22T09:42:28.507Z,0.02
2023-01-22T09:44:57.826Z,0.03
2023-01-22T09:47:47.647Z,0.05
2023-01-22T09:50:26.601Z,0.06
2023-01-22T09:52:55.121Z,0.05
2023-01-22T09:55:24.450Z,0.03
2023-01-22T09:57:53.058Z,0.00
2023-01-22T10:00:40.272Z,-0.02
2023-01-22T10:03:22.573Z,-0.03
2023-01-22T10:05:59.774Z,-0.04
2023-01-22T10:08:32.821Z,-0.02
2023-01-22T10:11:01.440Z,0.02
2023-01-22T10:13:34.650Z,0.03
2023-01-22T10:16:02.327Z,0.03
2023-01-22T10:19:03.084Z,0.06
2023-01-22T10:21:45.732Z,0.10
2023-01-22T10:24:12.771Z,0.11
2023-01-22T10:26:52.781Z,0.12
2023-01-22T10:29:34.299Z,0.11
2023-01-22T10:32:21.810Z,0.09
2023-01-22T10:35:05.246Z,0.05
2023-01-22T10:37:46.677Z,0.02
2023-01-22T10:40:21.803Z,-0.01
2023-01-22T10:43:12.385Z,0.04
2023-01-22T10:45:51.840Z,0.11
2023-01-22T10:48:19.419Z,0.17
2023-01-22T10:50:47.190Z,0.20
2023-01-22T10:53:33.961Z,0.23
2023-01-22T10:56:04.267Z,0.27
2023-01-22T10:58:37.093Z,0.29
2023-01-22T11:01:07.413Z,0.32
2023-01-22T11:03:36.961Z,0.31
2023-01-22T11:06:16.275Z,0.32
2023-01-22T11:08:47.611Z,0.35
2023-01-22T11:11:15.971Z,0.41
2023-01-22T11:13:54.344Z,0.46
2023-01-22T11:16:23.279Z,0.43
2023-01-22T11:19:07.176Z,0.41
2023-01-22T11:21:52.518Z,0.43
2023-01-22T11:24:23.354Z,0.42
2023-01-22T11:27:16.952Z,0.43
2023-01-22T11:30:03.225Z,0.41
2023-01-22T11:33:01.815Z,0.40
2023-01-22T11:35:41.780Z,0.44
2023-01-22T11:38:31.625Z,0.46
2023-01-22T11:41:09.789Z,0.48
2023-01-22T11:44:02.373Z,0.49
2023-01-22T11:46:33.079Z,0.47
2023-01-22T11:49:06.871Z,0.46
2023-01-22T11:52:06.674Z,0.45
2023-01-22T11:54:37.378Z,0.45
2023-01-22T11:57:19.503Z,0.44
2023-01-22T12:00:10.483Z,0.41
2023-01-22T12:02:53.673Z,0.40
2023-01-22T12:05:37.783Z,0.39
2023-01-22T12:08:20.829Z,0.33
2023-01-22T12:11:17.464Z,0.29
2023-01-22T12:13:59.359Z,0.28
2023-01-22T12:16:39.528Z,0.25
2023-01-22T12:19:26.990Z,0.20
2023-01-22T12:22:15.357Z,0.16
2023-01-22T12:24:49.405Z,0.12
2023-01-22T12:27:27.288Z,0.11
2023-01-22T12:30:03.264Z,0.08
2023-01-22T12:32:30.691Z,0.07
2023-01-22T12:35:09.325Z,0.08
2023-01-22T12:37:55.969Z,0.10
2023-01-22T12:40:45.113Z,0.09
2023-01-22T12:43:12.877Z,0.07
2023-01-22T12:45:53.138Z,0.04
2023-01-22T12:48:35.851Z,0.02
2023-01-22T12:51:03.771Z,0.01
2023-01-22T12:53:35.053Z,0.01
2023-01-22T12:56:04.799Z,0.01
2023-01-22T12:58:40.799Z,-0.02
2023-01-22T13:01:12.758Z,-0.02
2023-01-22T13:03:41.228Z,-0.04
2023-01-22T13:06:30.577Z,-0.06
2023-01-22T13:08:58.007Z,-0.12
2023-01-22T13:11:32.516Z,-0.16
2023-01-22T13:14:14.783Z,-0.18
2023-01-22T13:17:00.716Z,-0.23
2023-01-22T13:19:30.415Z,-0.26
2023-01-22T13:22:01.215Z,-0.29
2023-01-22T13:24:28.737Z,-0.30
2023-01-22T13:27:00.858Z,-0.31
2023-01-22T16:49:31.560Z,-1.67
2023-01-22T16:52:12.997Z,-1.58
2023-01-22T16:54:44.609Z,-1.58
2023-01-22T16:57:13.759Z,-1.60
2023-01-22T16:59:41.281Z,-1.62
2023-01-22T17:02:13.880Z,-1.63
2023-01-22T17:04:41.811Z,-1.63
2023-01-22T17:07:15.379Z,-1.62
2023-01-22T17:09:48.911Z,-1.63
2023-01-22T17:12:16.617Z,-1.67
2023-01-22T17:14:46.352Z,-1.71
2023-01-22T17:17:13.972Z,-1.74
2023-01-22T17:19:41.751Z,-1.76
2023-01-22T17:22:10.676Z,-1.76
2023-01-22T17:24:38.082Z,-1.75
2023-01-22T17:27:05.563Z,-1.74
2023-01-22T17:29:34.993Z,-1.73
2023-01-22T17:32:03.428Z,-1.70
2023-01-22T17:34:31.364Z,-1.69
2023-01-22T17:36:59.251Z,-1.68
2023-01-22T17:39:28.187Z,-1.68
2023-01-22T17:41:56.139Z,-1.68
2023-01-22T17:44:26.538Z,-1.69
2023-01-22T17:46:56.270Z,-1.69
2023-01-22T17:49:23.859Z,-1.68
2023-01-22T17:51:51.537Z,-1.68
2023-01-22T17:54:20.358Z,-1.69
2023-01-22T17:56:49.579Z,-1.69
2023-01-22T17:59:17.234Z,-1.71
2023-01-22T18:01:45.475Z,-1.73
2023-01-22T18:04:13.639Z,-1.73
2023-01-22T18:06:42.658Z,-1.73
2023-01-22T18:09:11.065Z,-1.72
2023-01-22T18:11:38.542Z,-1.72
2023-01-22T18:14:07.678Z,-1.73
2023-01-22T18:16:37.477Z,-1.74
2023-01-22T18:19:07.469Z,-1.75
2023-01-22T18:21:36.468Z,-1.77
2023-01-22T18:24:05.234Z,-1.79
2023-01-22T18:26:33.103Z,-1.82
2023-01-22T18:29:00.987Z,-1.81
2023-01-22T18:31:29.129Z,-1.79
2023-01-22T18:34:01.211Z,-1.79
2023-01-22T18:36:30.938Z,-1.82
2023-01-22T18:39:03.403Z,-1.81
2023-01-22T18:41:31.019Z,-1.82
2023-01-22T18:44:00.449Z,-1.82
2023-01-22T18:46:33.393Z,-1.83
2023-01-22T18:49:03.748Z,-1.82
2023-01-22T18:51:32.097Z,-1.82
2023-01-22T18:54:00.949Z,-1.81
2023-01-22T18:56:28.724Z,-1.83
2023-01-22T18:58:57.496Z,-1.86
2023-01-22T19:01:27.195Z,-1.86
2023-01-22T19:03:59.455Z,-1.86
2023-01-22T19:06:29.448Z,-1.88
2023-01-22T19:08:58.579Z,-1.87
2023-01-22T19:11:26.481Z,-1.89
2023-01-22T19:13:54.679Z,-1.91
2023-01-22T19:16:23.031Z,-1.92
2023-01-22T19:18:58.214Z,-1.92
2023-01-22T19:21:26.260Z,-1.93
2023-01-22T19:23:56.007Z,-1.93
2023-01-22T19:26:26.085Z,-1.97
2023-01-22T19:28:56.261Z,-1.99
2023-01-22T19:31:26.085Z,-1.98
2023-01-22T19:33:54.705Z,-1.97
2023-01-22T19:36:23.573Z,-1.97
2023-01-22T19:38:51.249Z,-1.97
2023-01-22T19:41:19.078Z,-1.98
2023-01-22T19:43:47.105Z,-1.97
2023-01-22T19:46:15.061Z,-1.96
2023-01-22T19:48:42.730Z,-1.94
2023-01-22T19:51:12.687Z,-1.95
2023-01-22T19:53:40.518Z,-1.94
2023-01-22T19:56:23.383Z,-1.94
2023-01-22T19:58:53.477Z,-1.93
2023-01-22T20:01:21.476Z,-1.91
2023-01-22T20:03:49.269Z,-1.90
2023-01-22T20:06:18.253Z,-1.89
2023-01-22T20:08:46.250Z,-1.88
2023-01-22T20:11:14.166Z,-1.89
2023-01-22T20:13:43.425Z,-1.88
2023-01-22T20:16:20.847Z,-1.86
2023-01-22T20:18:48.814Z,-1.86
2023-01-22T20:21:17.268Z,-1.86
2023-01-22T20:23:45.837Z,-1.87
2023-01-22T20:26:13.930Z,-1.87
2023-01-22T20:28:41.494Z,-1.86
2023-01-22T20:31:12.858Z,-1.85
2023-01-22T20:33:40.437Z,-1.84
2023-01-22T20:36:10.677Z,-1.83
2023-01-22T20:38:38.261Z,-1.82
2023-01-22T20:41:09.358Z,-1.82
2023-01-22T20:43:37.806Z,-1.82
2023-01-22T20:46:10.854Z,-1.82
2023-01-22T20:48:38.658Z,-1.81
2023-01-22T20:51:15.311Z,-1.81
2023-01-22T20:53:44.074Z,-1.82
2023-01-22T20:56:13.558Z,-1.81
2023-01-22T20:58:41.100Z,-1.82
2023-01-22T21:01:16.719Z,-1.83
2023-01-22T21:03:44.384Z,-1.83
2023-01-22T21:06:14.490Z,-1.84
2023-01-22T21:08:43.008Z,-1.85
2023-01-22T21:11:12.469Z,-1.84
2023-01-22T21:13:40.123Z,-1.82
2023-01-22T21:16:16.148Z,-1.80
2023-01-22T21:18:44.624Z,-1.80
2023-01-22T21:21:14.356Z,-1.81
2023-01-22T21:23:42.153Z,-1.79
2023-01-22T21:26:12.236Z,-1.78
2023-01-22T21:28:42.748Z,-1.80
2023-01-22T21:31:11.792Z,-1.80
2023-01-22T21:33:39.872Z,-1.81
2023-01-22T21:36:08.166Z,-1.79
2023-01-22T21:38:35.843Z,-1.78
2023-01-22T21:41:17.521Z,-1.77
2023-01-22T21:44:04.923Z,-1.77
2023-01-22T21:46:38.083Z,-1.78
2023-01-22T21:49:16.557Z,-1.78
2023-01-22T21:51:51.875Z,-1.78
2023-01-22T21:54:22.711Z,-1.79
2023-01-22T21:56:50.092Z,-1.80
2023-01-22T21:59:17.615Z,-1.81
2023-01-22T22:01:45.298Z,-1.81
2023-01-22T22:04:13.175Z,-1.81
2023-01-22T22:06:40.779Z,-1.81
2023-01-22T22:09:11.837Z,-1.81
2023-01-22T22:11:39.188Z,-1.79
2023-01-22T22:14:09.837Z,-1.79
2023-01-22T22:16:37.580Z,-1.78
2023-01-22T22:19:05.098Z,-1.78
2023-01-22T22:21:32.989Z,-1.77
2023-01-22T22:24:00.825Z,-1.78
2023-01-22T22:26:28.519Z,-1.78
2023-01-22T22:28:56.038Z,-1.78
2023-01-22T22:31:23.445Z,-1.79
2023-01-22T22:33:52.319Z,-1.80
2023-01-22T22:36:21.552Z,-1.80
2023-01-22T22:38:49.174Z,-1.79
2023-01-22T22:41:21.254Z,-1.80
2023-01-22T22:43:51.975Z,-1.79
2023-01-22T22:46:22.943Z,-1.80
2023-01-22T22:48:51.204Z,-1.81
2023-01-22T22:51:21.351Z,-1.81
2023-01-22T22:53:51.616Z,-1.81
2023-01-22T22:56:19.226Z,-1.79
2023-01-22T22:58:46.642Z,-1.79
2023-01-22T23:01:16.209Z,-1.79
2023-01-22T23:03:43.895Z,-1.80
2023-01-22T23:06:16.779Z,-1.81
2023-01-22T23:08:46.003Z,-1.81
2023-01-22T23:11:14.928Z,-1.82
2023-01-22T23:13:48.417Z,-1.84
2023-01-22T23:16:19.902Z,-1.84
2023-01-22T23:18:48.920Z,-1.84
2023-01-22T23:21:19.454Z,-1.84
2023-01-22T23:23:47.047Z,-1.84
2023-01-22T23:26:16.574Z,-1.84
2023-01-22T23:28:44.657Z,-1.85
2023-01-22T23:31:13.584Z,-1.86
2023-01-22T23:33:41.412Z,-1.89
2023-01-22T23:36:13.370Z,-1.91
2023-01-22T23:38:41.125Z,-1.93
2023-01-22T23:41:10.184Z,-1.93
2023-01-22T23:43:37.630Z,-1.92
2023-01-22T23:46:09.589Z,-1.93
2023-01-22T23:48:37.329Z,-1.93
2023-01-22T23:51:05.120Z,-1.96
2023-01-22T23:53:35.082Z,-1.99
2023-01-22T23:56:03.174Z,-2.00
2023-01-22T23:58:30.572Z,-2.01
